AirNav  
 
 924 users online  

GE99 Heaven's Landing Airport
Clayton, Georgia, USA

GOING TO CLAYTON?


FAA INFORMATION EFFECTIVE 26 APRIL 2018

Location

FAA Identifier: GE99
Lat/Long: 34-54-51.0600N / 083-27-33.9300W
34-54.851000N / 083-27.565500W
34.9141833 / -83.4594250
(estimated)
Elevation: 2724 ft. / 830.3 m (surveyed)
Variation: 05W (2005)
From city: 4 miles NW of CLAYTON, GA
Time zone: UTC -4 (UTC -5 during Standard Time)
Zip code: 30525

Airport Operations

Airport use: Private use. Permission required prior to landing
Activation date: 02/2004
Control tower: no
ARTCC: ATLANTA CENTER
FSS: MACON FLIGHT SERVICE STATION
NOTAMs facility: FDC (NOTAM-D service not available)
Attendance: 0900-1700
Wind indicator: yes
Segmented circle: no
Lights: MIRL RWY 05/23 AND PAPI RWY 23 CTAF.

Airport Communications

WX AWOS-3 at 1A5 (19 nm N): 118.225 (828-349-3156)
  • 122.9

Nearby radio navigation aids

VOR radial/distance  VOR name  Freq  Var
ODFr329/15.3FOOTHILLS VORTAC113.4000E
HRSr094/22.5HARRIS VORTAC109.8000E

 
NDB name  Hdg/Dist  Freq  Var  ID
CLEMSON302/31.725705WCEU -.-. . ..-
LAKE KEOWEE283/37.740804WLQK .-.. --.- -.-

Airport Services

Fuel available: 100LL JET-A

Runway Information

Runway 5/23

Dimensions: 5062 x 50 ft. / 1543 x 15 m
Surface: concrete
Runway edge lights: medium intensity
Runway edge markings: RWY END MARKINGS NSTD SIZE.
RUNWAY 5  RUNWAY 23
Latitude: 34-54.530000N34-55.172000N
Longitude: 083-27.889000W083-27.242000W
Elevation: 2686.0 ft.2735.0 ft.
Traffic pattern: rightleft
Markings: NSTD, in good conditionNSTD, in good condition
Visual slope indicator: 2-light PAPI on left (4.00 degrees glide path)
Touchdown point: yes, no lightsyes, no lights

Airport Ownership and Management from official FAA records

Ownership: Privately-owned
Owner: HEAVEN'S LANDING, LLC
1271 LITTLE CREEK ROAD
CLAYTON, GA 30525
Phone 706-212-0017
Manager: MIKE CIOCHETTI, JR
1271 LITTLE CREEK ROAD
CLAYTON, GA 30525
Phone 706-212-0017

Airport Operational Statistics

Aircraft based on the field: 27
Single engine airplanes: 15
Multi engine airplanes: 9
Jet airplanes: 3
    

Additional Remarks

MOUNTAINOUS TERRAIN ALL QUADRANTS.

Instrument Procedures

There are no published instrument procedures at GE99.

Some nearby airports with instrument procedures:

1A5 - Macon County Airport (19 nm N)
KTOC - Toccoa Airport-RG Letourneau Field (21 nm SE)
KAJR - Habersham County Airport (25 nm S)
KRHP - Western Carolina Regional Airport (26 nm NW)
KDZJ - Blairsville Airport (27 nm W)
 
Loc | Ops | Rwys | IFR | FBO | Links
Com | Nav | Svcs | Stats | Notes

AirNav Hotels Sweepstakes
 
Area around GE99 (Heaven's Landing Airport)
 
Road maps at: MapQuest Bing Google
 
Aerial photo
WARNING: Photo may not be current or correct
Aerial photo of GE99 (Heaven's Landing Airport)
Photo taken 04-Jan-2011
looking east.

Do you have a better or more recent aerial photo of Heaven's Landing Airport that you would like to share? If so, please send us your photo.

 
Sectional chart

 
Airport distance calculator
Flying to Heaven's Landing Airport? Find the distance to fly.

From to GE99

Sunrise and sunset
Times for 26-Apr-2018
 Local
(UTC-4)
 Zulu
(UTC)
Morning civil twilight06:2310:23
Sunrise06:5010:50
Sunset20:1400:14
Evening civil twilight20:4000:40

Current date and time
Zulu (UTC)  27-Apr-2018 01:20:33
Local (UTC-4)  26-Apr-2018 21:20:33
 
METAR
K1A5 
19nm N 
270055Z AUTO 00000KT 10SM -RA SCT010 BKN043 OVC095 11/10 A2985 RMK AO2 P0001 T01140100
KTOC 
21nm SE 
270055Z AUTO 07004KT 10SM SCT015 SCT032 OVC038 16/15 A2982 RMK AO2 T01580153
KRHP 
25nm NW 
270055Z AUTO 00000KT 10SM SCT032 BKN039 OVC047 12/12 A2984 RMK AO2 T01160116
KAJR 
25nm S 
270055Z AUTO 36007G16KT 10SM -VCTSRA SCT009 SCT019 OVC027 11/11 A2984 RMK AO2 LTG DSNT ALQS T01110111
KDZJ 
27nm W 
270055Z AUTO 00000KT 5SM -RA BR BKN024 OVC031 11/10 A2986 RMK AO2 LTG DSNT SE AND S P0006 T01080104
K24A 
27nm NE 
270055Z AUTO 00000KT 2 1/2SM -VCTSRA BR SCT003 SCT011 OVC049 09/09 A2987 RMK AO2 VIS 1 1/2V5 T00940090
KCEU 
32nm SE 
270054Z AUTO 01003KT 10SM FEW012 BKN044 OVC080 14/13 A2984 RMK AO2 LTG DSNT W SLP099 T01390133
TAF
KAND 
44nm SE 
262208Z 2622/2718 12005KT P6SM VCSH FEW090 SCT120 FM270000 04004KT 5SM BR VCSH OVC012 FM270500 22005KT P6SM OVC004 FM271300 27005KT P6SM BKN025 FM271500 31006KT P6SM SCT050
NOTAMs
Click for the latest NOTAMs
NOTAMs are issued by the DoD/FAA and will open in a separate window not controlled by AirNav.

 

 
 

FBO, Fuel Providers, and Aircraft Ground Support

  
 Business Name 
 
 Contact 
 
 Services / Description 
 
Fuel Prices
 
Comments
  
Heaven's Landing MULTICOM 122.90
706-212-0017
706-490-2717
[web site]
[email]
Heaven's Landing - Fly In Living Like No Place on Earth!
- 5,200 Foot Private Concrete Runway
- GPS Approach
- 300 Home Sites averaging 1.5 acres
- Perfect location in the Mountains of N.E. Georgia
- Surrounded by the Chattahoochee National Forest
- 3.5 miles from downtown Clayton, Georgia
- 3.5 miles to Lake Burton
- Community Clubhouse
- Affiliated with Waterfall Country Club
- Homes, Hangars & Lots Available
- 100 LL & Jet A Fuel
Tours "by appointment" 7 days a week
Toll Free: 1-800-HEAVEN-2 (800-432-8362)
www.heavenslanding.com
Come & see why Heaven's Landing truly lives up to its name!
More info and photos of Heaven's Landing
Shell
100LL Jet A
AS --- $3.59 
SS $4.45 --- 
 Updated 07-Apr-2018
 
   write
AS=Assisted/Self Service
SS=Self service
Update Fuel Prices
 

Would you like to see your business listed on this page?

 If your business provides an interesting product or service to pilots, flight crews, aircraft, or users of the Heaven's Landing Airport, you should consider listing it here.  To start the listing process, click on the button below
 
Add a business
 

Other Pages about Heaven's Landing Airport

Update a link
 
Copyright © AirNav, LLC. All rights reserved. Privacy Policy  Contact